sensor_id;sensor_type;location;lat;lon;timestamp;temperature;humidity
69335;SHT31;56477;52.742;15.242;2022-11-27T00:01:21;5.58;99.99
69335;SHT31;56477;52.742;15.242;2022-11-27T00:03:48;5.56;99.99
69335;SHT31;56477;52.742;15.242;2022-11-27T00:06:17;5.52;99.99
69335;SHT31;56477;52.742;15.242;2022-11-27T00:08:44;5.52;99.99
69335;SHT31;56477;52.742;15.242;2022-11-27T00:11:16;5.52;99.99
69335;SHT31;56477;52.742;15.242;2022-11-27T00:13:42;5.52;99.99
69335;SHT31;56477;52.742;15.242;2022-11-27T00:16:09;5.55;99.99
69335;SHT31;56477;52.742;15.242;2022-11-27T00:18:35;5.52;99.99
69335;SHT31;56477;52.742;15.242;2022-11-27T00:21:12;5.51;99.99
69335;SHT31;56477;52.742;15.242;2022-11-27T00:23:39;5.52;99.99
69335;SHT31;56477;52.742;15.242;2022-11-27T00:26:06;5.51;99.99
69335;SHT31;56477;52.742;15.242;2022-11-27T00:28:33;5.55;99.99
69335;SHT31;56477;52.742;15.242;2022-11-27T00:31:11;5.56;99.99
69335;SHT31;56477;52.742;15.242;2022-11-27T00:33:37;5.56;99.99
69335;SHT31;56477;52.742;15.242;2022-11-27T00:36:05;5.56;99.99
69335;SHT31;56477;52.742;15.242;2022-11-27T00:38:32;5.58;99.99
69335;SHT31;56477;52.742;15.242;2022-11-27T00:41:25;5.60;99.99
69335;SHT31;56477;52.742;15.242;2022-11-27T00:43:50;5.56;99.99
69335;SHT31;56477;52.742;15.242;2022-11-27T00:46:19;5.59;99.99
69335;SHT31;56477;52.742;15.242;2022-11-27T00:48:45;5.56;99.99
69335;SHT31;56477;52.742;15.242;2022-11-27T00:51:15;5.60;99.99
69335;SHT31;56477;52.742;15.242;2022-11-27T00:53:41;5.59;99.99
69335;SHT31;56477;52.742;15.242;2022-11-27T00:56:13;5.59;99.99
69335;SHT31;56477;52.742;15.242;2022-11-27T00:58:40;5.58;99.99
69335;SHT31;56477;52.742;15.242;2022-11-27T01:01:06;5.60;99.99
69335;SHT31;56477;52.742;15.242;2022-11-27T01:03:33;5.59;99.99
69335;SHT31;56477;52.742;15.242;2022-11-27T01:06:04;5.59;99.99
69335;SHT31;56477;52.742;15.242;2022-11-27T01:08:31;5.62;99.99
69335;SHT31;56477;52.742;15.242;2022-11-27T01:10:58;5.62;99.99
69335;SHT31;56477;52.742;15.242;2022-11-27T01:13:26;5.62;99.99
69335;SHT31;56477;52.742;15.242;2022-11-27T01:16:05;5.62;99.99
69335;SHT31;56477;52.742;15.242;2022-11-27T01:18:33;5.62;99.99
69335;SHT31;56477;52.742;15.242;2022-11-27T01:21:00;5.63;99.99
69335;SHT31;56477;52.742;15.242;2022-11-27T01:23:26;5.63;99.99
69335;SHT31;56477;52.742;15.242;2022-11-27T01:25:53;5.63;99.99
69335;SHT31;56477;52.742;15.242;2022-11-27T01:28:22;5.62;99.99
69335;SHT31;56477;52.742;15.242;2022-11-27T01:30:49;5.65;99.99
69335;SHT31;56477;52.742;15.242;2022-11-27T01:33:16;5.62;99.99
69335;SHT31;56477;52.742;15.242;2022-11-27T01:35:54;5.62;99.99
69335;SHT31;56477;52.742;15.242;2022-11-27T01:38:21;5.63;99.99
69335;SHT31;56477;52.742;15.242;2022-11-27T01:40:48;5.69;99.99
69335;SHT31;56477;52.742;15.242;2022-11-27T01:43:14;5.66;99.99
69335;SHT31;56477;52.742;15.242;2022-11-27T01:45:41;5.63;99.99
69335;SHT31;56477;52.742;15.242;2022-11-27T01:48:10;5.66;99.99
69335;SHT31;56477;52.742;15.242;2022-11-27T01:50:38;5.62;99.99
69335;SHT31;56477;52.742;15.242;2022-11-27T01:53:11;5.68;99.99
69335;SHT31;56477;52.742;15.242;2022-11-27T01:55:45;5.66;99.99
69335;SHT31;56477;52.742;15.242;2022-11-27T01:58:17;5.68;99.99
69335;SHT31;56477;52.742;15.242;2022-11-27T02:00:44;5.68;99.99
69335;SHT31;56477;52.742;15.242;2022-11-27T02:03:10;5.68;99.99
69335;SHT31;56477;52.742;15.242;2022-11-27T02:05:36;5.69;99.99
69335;SHT31;56477;52.742;15.242;2022-11-27T02:08:06;5.69;99.99
69335;SHT31;56477;52.742;15.242;2022-11-27T02:10:58;5.69;99.99
69335;SHT31;56477;52.742;15.242;2022-11-27T02:19:04;5.70;99.99
69335;SHT31;56477;52.742;15.242;2022-11-27T02:21:56;5.70;99.99
69335;SHT31;56477;52.742;15.242;2022-11-27T02:27:49;5.69;99.99
69335;SHT31;56477;52.742;15.242;2022-11-27T02:30:10;5.69;99.99
69335;SHT31;56477;52.742;15.242;2022-11-27T02:32:41;5.72;99.99
69335;SHT31;56477;52.742;15.242;2022-11-27T02:37:59;5.73;99.99
69335;SHT31;56477;52.742;15.242;2022-11-27T02:43:36;5.73;99.99
69335;SHT31;56477;52.742;15.242;2022-11-27T02:46:05;5.78;99.99
69335;SHT31;56477;52.742;15.242;2022-11-27T02:48:39;5.76;99.99
69335;SHT31;56477;52.742;15.242;2022-11-27T02:51:09;5.75;99.99
69335;SHT31;56477;52.742;15.242;2022-11-27T02:53:41;5.73;99.99
69335;SHT31;56477;52.742;15.242;2022-11-27T02:56:11;5.73;99.99
69335;SHT31;56477;52.742;15.242;2022-11-27T02:58:40;5.72;99.99
69335;SHT31;56477;52.742;15.242;2022-11-27T03:01:07;5.69;99.99
69335;SHT31;56477;52.742;15.242;2022-11-27T03:03:39;5.69;99.99
69335;SHT31;56477;52.742;15.242;2022-11-27T03:06:08;5.72;99.99
69335;SHT31;56477;52.742;15.242;2022-11-27T03:11:20;5.72;99.99
69335;SHT31;56477;52.742;15.242;2022-11-27T03:13:53;5.75;99.99
69335;SHT31;56477;52.742;15.242;2022-11-27T03:21:44;5.66;99.99
69335;SHT31;56477;52.742;15.242;2022-11-27T03:24:11;5.66;99.99
69335;SHT31;56477;52.742;15.242;2022-11-27T03:26:38;5.68;99.99
69335;SHT31;56477;52.742;15.242;2022-11-27T03:29:07;5.68;99.99
69335;SHT31;56477;52.742;15.242;2022-11-27T03:31:35;5.68;99.99
69335;SHT31;56477;52.742;15.242;2022-11-27T03:34:02;5.68;99.99
69335;SHT31;56477;52.742;15.242;2022-11-27T03:36:28;5.66;99.99
69335;SHT31;56477;52.742;15.242;2022-11-27T03:38:54;5.68;99.99
69335;SHT31;56477;52.742;15.242;2022-11-27T03:44:47;5.63;99.99
69335;SHT31;56477;52.742;15.242;2022-11-27T03:57:39;5.65;99.99
69335;SHT31;56477;52.742;15.242;2022-11-27T04:00:08;5.63;99.99
69335;SHT31;56477;52.742;15.242;2022-11-27T04:02:44;5.59;99.99
69335;SHT31;56477;52.742;15.242;2022-11-27T04:05:11;5.62;99.99
69335;SHT31;56477;52.742;15.242;2022-11-27T04:07:38;5.60;99.99
69335;SHT31;56477;52.742;15.242;2022-11-27T04:10:05;5.63;99.99
69335;SHT31;56477;52.742;15.242;2022-11-27T04:12:31;5.60;99.99
69335;SHT31;56477;52.742;15.242;2022-11-27T04:14:57;5.62;99.99
69335;SHT31;56477;52.742;15.242;2022-11-27T04:17:23;5.60;99.99
69335;SHT31;56477;52.742;15.242;2022-11-27T04:19:49;5.65;99.99
69335;SHT31;56477;52.742;15.242;2022-11-27T04:22:15;5.68;99.99
69335;SHT31;56477;52.742;15.242;2022-11-27T04:24:41;5.69;99.99
69335;SHT31;56477;52.742;15.242;2022-11-27T04:27:07;5.68;99.99
69335;SHT31;56477;52.742;15.242;2022-11-27T04:29:33;5.70;99.99
69335;SHT31;56477;52.742;15.242;2022-11-27T04:32:01;5.73;99.99
69335;SHT31;56477;52.742;15.242;2022-11-27T04:34:27;5.72;99.99
69335;SHT31;56477;52.742;15.242;2022-11-27T04:36:53;5.73;99.99
69335;SHT31;56477;52.742;15.242;2022-11-27T04:39:19;5.75;99.99
69335;SHT31;56477;52.742;15.242;2022-11-27T04:41:45;5.78;99.99
69335;SHT31;56477;52.742;15.242;2022-11-27T04:44:12;5.76;99.99
69335;SHT31;56477;52.742;15.242;2022-11-27T04:46:37;5.82;99.99
69335;SHT31;56477;52.742;15.242;2022-11-27T04:49:04;5.80;99.99
69335;SHT31;56477;52.742;15.242;2022-11-27T04:51:30;5.76;99.99
69335;SHT31;56477;52.742;15.242;2022-11-27T04:53:56;5.80;99.99
69335;SHT31;56477;52.742;15.242;2022-11-27T04:56:22;5.79;99.99
69335;SHT31;56477;52.742;15.242;2022-11-27T04:58:48;5.79;99.99
69335;SHT31;56477;52.742;15.242;2022-11-27T05:01:14;5.80;99.99
69335;SHT31;56477;52.742;15.242;2022-11-27T05:03:40;5.80;99.99
69335;SHT31;56477;52.742;15.242;2022-11-27T05:06:06;5.82;99.99
69335;SHT31;56477;52.742;15.242;2022-11-27T05:08:33;5.83;99.99
69335;SHT31;56477;52.742;15.242;2022-11-27T05:11:04;5.79;99.99
69335;SHT31;56477;52.742;15.242;2022-11-27T05:13:31;5.80;99.99
69335;SHT31;56477;52.742;15.242;2022-11-27T05:15:57;5.79;99.99
69335;SHT31;56477;52.742;15.242;2022-11-27T05:18:23;5.76;99.99
69335;SHT31;56477;52.742;15.242;2022-11-27T05:20:57;5.75;99.99
69335;SHT31;56477;52.742;15.242;2022-11-27T05:23:24;5.75;99.99
69335;SHT31;56477;52.742;15.242;2022-11-27T05:25:50;5.75;99.99
69335;SHT31;56477;52.742;15.242;2022-11-27T05:28:16;5.76;99.99
69335;SHT31;56477;52.742;15.242;2022-11-27T05:30:42;5.72;99.99
69335;SHT31;56477;52.742;15.242;2022-11-27T05:33:09;5.70;99.99
69335;SHT31;56477;52.742;15.242;2022-11-27T05:35:38;5.69;99.99
69335;SHT31;56477;52.742;15.242;2022-11-27T05:38:04;5.72;99.99
69335;SHT31;56477;52.742;15.242;2022-11-27T05:40:30;5.75;99.99
69335;SHT31;56477;52.742;15.242;2022-11-27T05:42:56;5.73;99.99
69335;SHT31;56477;52.742;15.242;2022-11-27T05:45:22;5.69;99.99
69335;SHT31;56477;52.742;15.242;2022-11-27T05:47:48;5.69;99.99
69335;SHT31;56477;52.742;15.242;2022-11-27T05:50:14;5.70;99.99
69335;SHT31;56477;52.742;15.242;2022-11-27T05:52:40;5.70;99.99
69335;SHT31;56477;52.742;15.242;2022-11-27T05:55:06;5.69;99.99
69335;SHT31;56477;52.742;15.242;2022-11-27T05:57:32;5.69;99.99
69335;SHT31;56477;52.742;15.242;2022-11-27T05:59:58;5.70;99.99
69335;SHT31;56477;52.742;15.242;2022-11-27T06:02:25;5.65;99.99
69335;SHT31;56477;52.742;15.242;2022-11-27T06:04:51;5.62;99.99
69335;SHT31;56477;52.742;15.242;2022-11-27T06:07:17;5.60;99.99
69335;SHT31;56477;52.742;15.242;2022-11-27T06:09:43;5.59;99.99
69335;SHT31;56477;52.742;15.242;2022-11-27T06:12:09;5.59;99.99
69335;SHT31;56477;52.742;15.242;2022-11-27T06:14:35;5.62;99.99
69335;SHT31;56477;52.742;15.242;2022-11-27T06:17:02;5.60;99.99
69335;SHT31;56477;52.742;15.242;2022-11-27T06:19:29;5.65;99.99
69335;SHT31;56477;52.742;15.242;2022-11-27T06:21:55;5.68;99.99
69335;SHT31;56477;52.742;15.242;2022-11-27T06:24:21;5.69;99.99
69335;SHT31;56477;52.742;15.242;2022-11-27T06:26:47;5.70;99.99
69335;SHT31;56477;52.742;15.242;2022-11-27T06:29:13;5.70;99.99
69335;SHT31;56477;52.742;15.242;2022-11-27T06:31:41;5.69;99.99
69335;SHT31;56477;52.742;15.242;2022-11-27T06:34:07;5.69;99.99
69335;SHT31;56477;52.742;15.242;2022-11-27T06:36:35;5.70;99.99
69335;SHT31;56477;52.742;15.242;2022-11-27T06:39:04;5.69;99.99
69335;SHT31;56477;52.742;15.242;2022-11-27T06:41:30;5.69;99.99
69335;SHT31;56477;52.742;15.242;2022-11-27T06:43:57;5.70;99.99
69335;SHT31;56477;52.742;15.242;2022-11-27T06:46:24;5.70;99.99
69335;SHT31;56477;52.742;15.242;2022-11-27T06:48:53;5.70;99.99
69335;SHT31;56477;52.742;15.242;2022-11-27T06:51:22;5.69;99.99
69335;SHT31;56477;52.742;15.242;2022-11-27T06:53:48;5.68;99.99
69335;SHT31;56477;52.742;15.242;2022-11-27T06:56:20;5.66;99.99
69335;SHT31;56477;52.742;15.242;2022-11-27T06:58:50;5.68;99.99
69335;SHT31;56477;52.742;15.242;2022-11-27T07:01:16;5.65;99.99
69335;SHT31;56477;52.742;15.242;2022-11-27T07:03:42;5.66;99.99
69335;SHT31;56477;52.742;15.242;2022-11-27T07:06:12;5.65;99.99
69335;SHT31;56477;52.742;15.242;2022-11-27T07:08:38;5.65;99.99
69335;SHT31;56477;52.742;15.242;2022-11-27T07:11:11;5.62;99.99
69335;SHT31;56477;52.742;15.242;2022-11-27T07:13:36;5.59;99.99
69335;SHT31;56477;52.742;15.242;2022-11-27T07:16:05;5.60;99.99
69335;SHT31;56477;52.742;15.242;2022-11-27T07:18:36;5.59;99.99
69335;SHT31;56477;52.742;15.242;2022-11-27T07:21:04;5.60;99.99
69335;SHT31;56477;52.742;15.242;2022-11-27T07:23:30;5.60;99.99
69335;SHT31;56477;52.742;15.242;2022-11-27T07:25:56;5.62;99.99
69335;SHT31;56477;52.742;15.242;2022-11-27T07:28:22;5.63;99.99
69335;SHT31;56477;52.742;15.242;2022-11-27T07:30:55;5.62;99.99
69335;SHT31;56477;52.742;15.242;2022-11-27T07:33:21;5.66;99.99
69335;SHT31;56477;52.742;15.242;2022-11-27T07:35:48;5.63;99.99
69335;SHT31;56477;52.742;15.242;2022-11-27T07:38:13;5.66;99.99
69335;SHT31;56477;52.742;15.242;2022-11-27T07:40:39;5.73;99.99
69335;SHT31;56477;52.742;15.242;2022-11-27T07:43:05;5.75;99.99
69335;SHT31;56477;52.742;15.242;2022-11-27T07:45:31;5.75;99.99
69335;SHT31;56477;52.742;15.242;2022-11-27T07:47:57;5.70;99.99
69335;SHT31;56477;52.742;15.242;2022-11-27T07:50:23;5.73;99.99
69335;SHT31;56477;52.742;15.242;2022-11-27T07:52:49;5.70;99.99
69335;SHT31;56477;52.742;15.242;2022-11-27T07:55:15;5.70;99.99
69335;SHT31;56477;52.742;15.242;2022-11-27T07:57:41;5.76;99.99
69335;SHT31;56477;52.742;15.242;2022-11-27T08:00:08;5.75;99.99
69335;SHT31;56477;52.742;15.242;2022-11-27T08:02:34;5.75;99.99
69335;SHT31;56477;52.742;15.242;2022-11-27T08:05:00;5.78;99.99
69335;SHT31;56477;52.742;15.242;2022-11-27T08:07:29;5.72;99.99
69335;SHT31;56477;52.742;15.242;2022-11-27T08:09:56;5.76;99.99
69335;SHT31;56477;52.742;15.242;2022-11-27T08:12:24;5.83;99.99
69335;SHT31;56477;52.742;15.242;2022-11-27T08:14:51;5.86;99.99
69335;SHT31;56477;52.742;15.242;2022-11-27T08:17:17;5.93;99.99
69335;SHT31;56477;52.742;15.242;2022-11-27T08:19:43;5.93;99.99
69335;SHT31;56477;52.742;15.242;2022-11-27T08:22:11;5.90;99.99
69335;SHT31;56477;52.742;15.242;2022-11-27T08:24:38;5.89;99.99
69335;SHT31;56477;52.742;15.242;2022-11-27T08:27:04;5.86;99.99
69335;SHT31;56477;52.742;15.242;2022-11-27T08:29:30;5.92;99.99
69335;SHT31;56477;52.742;15.242;2022-11-27T08:31:56;5.96;99.99
69335;SHT31;56477;52.742;15.242;2022-11-27T08:34:22;6.02;99.99
69335;SHT31;56477;52.742;15.242;2022-11-27T08:36:47;6.06;99.99
69335;SHT31;56477;52.742;15.242;2022-11-27T08:39:14;6.05;99.99
69335;SHT31;56477;52.742;15.242;2022-11-27T08:41:42;6.03;99.99
69335;SHT31;56477;52.742;15.242;2022-11-27T08:44:09;6.10;99.99
69335;SHT31;56477;52.742;15.242;2022-11-27T08:46:35;6.11;99.99
69335;SHT31;56477;52.742;15.242;2022-11-27T08:49:01;6.13;99.99
69335;SHT31;56477;52.742;15.242;2022-11-27T08:51:27;6.16;99.99
69335;SHT31;56477;52.742;15.242;2022-11-27T08:53:53;6.20;99.99
69335;SHT31;56477;52.742;15.242;2022-11-27T08:56:22;6.21;99.99
69335;SHT31;56477;52.742;15.242;2022-11-27T08:58:48;6.20;99.99
69335;SHT31;56477;52.742;15.242;2022-11-27T09:01:17;6.24;99.99
69335;SHT31;56477;52.742;15.242;2022-11-27T09:03:43;6.31;99.99
69335;SHT31;56477;52.742;15.242;2022-11-27T09:06:12;6.35;99.99
69335;SHT31;56477;52.742;15.242;2022-11-27T09:08:39;6.45;99.99
69335;SHT31;56477;52.742;15.242;2022-11-27T09:11:05;6.47;99.99
69335;SHT31;56477;52.742;15.242;2022-11-27T09:13:32;6.45;99.99
69335;SHT31;56477;52.742;15.242;2022-11-27T09:16:03;6.48;99.99
69335;SHT31;56477;52.742;15.242;2022-11-27T09:18:29;6.52;99.99
69335;SHT31;56477;52.742;15.242;2022-11-27T09:20:59;6.57;99.99
69335;SHT31;56477;52.742;15.242;2022-11-27T09:23:27;6.54;99.99
69335;SHT31;56477;52.742;15.242;2022-11-27T09:25:53;6.55;99.99
69335;SHT31;56477;52.742;15.242;2022-11-27T09:28:19;6.51;99.99
69335;SHT31;56477;52.742;15.242;2022-11-27T09:30:45;6.54;99.99
69335;SHT31;56477;52.742;15.242;2022-11-27T09:33:11;6.55;99.99
69335;SHT31;56477;52.742;15.242;2022-11-27T09:35:38;6.58;99.99
69335;SHT31;56477;52.742;15.242;2022-11-27T09:38:04;6.54;99.99
69335;SHT31;56477;52.742;15.242;2022-11-27T09:40:30;6.55;99.99
69335;SHT31;56477;52.742;15.242;2022-11-27T09:43:02;6.57;99.99
69335;SHT31;56477;52.742;15.242;2022-11-27T09:45:37;6.58;99.99
69335;SHT31;56477;52.742;15.242;2022-11-27T09:48:07;6.58;99.99
69335;SHT31;56477;52.742;15.242;2022-11-27T09:50:39;6.58;99.99
69335;SHT31;56477;52.742;15.242;2022-11-27T09:53:27;6.59;99.99
69335;SHT31;56477;52.742;15.242;2022-11-27T09:55:57;6.63;99.99
69335;SHT31;56477;52.742;15.242;2022-11-27T10:00:55;6.63;99.99
69335;SHT31;56477;52.742;15.242;2022-11-27T10:03:26;6.65;99.99
69335;SHT31;56477;52.742;15.242;2022-11-27T10:16:46;6.72;99.99
69335;SHT31;56477;52.742;15.242;2022-11-27T10:22:14;6.78;99.99
69335;SHT31;56477;52.742;15.242;2022-11-27T10:27:32;6.81;99.99
69335;SHT31;56477;52.742;15.242;2022-11-27T10:30:00;6.81;99.99
69335;SHT31;56477;52.742;15.242;2022-11-27T10:32:30;6.85;99.99
69335;SHT31;56477;52.742;15.242;2022-11-27T10:35:01;6.88;99.99
69335;SHT31;56477;52.742;15.242;2022-11-27T10:38:02;6.81;99.99
69335;SHT31;56477;52.742;15.242;2022-11-27T10:40:30;6.84;99.99
69335;SHT31;56477;52.742;15.242;2022-11-27T10:45:59;6.95;99.99
69335;SHT31;56477;52.742;15.242;2022-11-27T10:48:27;6.92;99.99
69335;SHT31;56477;52.742;15.242;2022-11-27T10:50:55;6.93;99.99
69335;SHT31;56477;52.742;15.242;2022-11-27T10:53:32;6.89;99.99
69335;SHT31;56477;52.742;15.242;2022-11-27T11:01:26;6.93;99.99
69335;SHT31;56477;52.742;15.242;2022-11-27T11:04:06;6.96;99.99
69335;SHT31;56477;52.742;15.242;2022-11-27T11:06:38;6.93;99.99
69335;SHT31;56477;52.742;15.242;2022-11-27T11:09:16;6.93;99.99
69335;SHT31;56477;52.742;15.242;2022-11-27T11:11:43;6.97;99.99
69335;SHT31;56477;52.742;15.242;2022-11-27T11:14:18;7.00;99.99
69335;SHT31;56477;52.742;15.242;2022-11-27T11:16:45;6.97;99.99
69335;SHT31;56477;52.742;15.242;2022-11-27T11:19:21;6.99;99.99
69335;SHT31;56477;52.742;15.242;2022-11-27T11:21:48;6.97;99.99
69335;SHT31;56477;52.742;15.242;2022-11-27T11:24:26;6.95;99.99
69335;SHT31;56477;52.742;15.242;2022-11-27T11:27:14;6.95;99.99
69335;SHT31;56477;52.742;15.242;2022-11-27T11:29:49;6.95;99.99
69335;SHT31;56477;52.742;15.242;2022-11-27T11:34:51;6.97;99.99
69335;SHT31;56477;52.742;15.242;2022-11-27T11:37:24;7.00;99.99
69335;SHT31;56477;52.742;15.242;2022-11-27T11:42:59;7.00;99.99
69335;SHT31;56477;52.742;15.242;2022-11-27T11:45:28;7.03;99.99
69335;SHT31;56477;52.742;15.242;2022-11-27T11:47:57;7.00;99.99
69335;SHT31;56477;52.742;15.242;2022-11-27T11:53:00;7.02;99.99
69335;SHT31;56477;52.742;15.242;2022-11-27T12:01:27;7.00;99.99
69335;SHT31;56477;52.742;15.242;2022-11-27T12:07:11;6.96;99.99
69335;SHT31;56477;52.742;15.242;2022-11-27T12:14:55;6.92;99.99
69335;SHT31;56477;52.742;15.242;2022-11-27T12:17:40;6.92;99.99
69335;SHT31;56477;52.742;15.242;2022-11-27T12:20:16;6.91;99.99
69335;SHT31;56477;52.742;15.242;2022-11-27T12:39:27;7.00;99.99
69335;SHT31;56477;52.742;15.242;2022-11-27T12:41:58;7.02;99.99
69335;SHT31;56477;52.742;15.242;2022-11-27T12:44:57;7.00;99.99
69335;SHT31;56477;52.742;15.242;2022-11-27T12:50:08;7.02;99.99
69335;SHT31;56477;52.742;15.242;2022-11-27T12:52:42;7.03;99.99
69335;SHT31;56477;52.742;15.242;2022-11-27T12:55:14;7.00;99.99
69335;SHT31;56477;52.742;15.242;2022-11-27T12:57:51;7.06;99.99
69335;SHT31;56477;52.742;15.242;2022-11-27T13:00:21;7.06;99.99
69335;SHT31;56477;52.742;15.242;2022-11-27T13:03:17;7.03;99.99
69335;SHT31;56477;52.742;15.242;2022-11-27T13:08:19;7.05;99.99
69335;SHT31;56477;52.742;15.242;2022-11-27T13:10:53;7.09;99.99
69335;SHT31;56477;52.742;15.242;2022-11-27T13:13:33;7.07;99.99
69335;SHT31;56477;52.742;15.242;2022-11-27T13:16:04;7.06;99.99
69335;SHT31;56477;52.742;15.242;2022-11-27T13:18:42;7.06;99.99
69335;SHT31;56477;52.742;15.242;2022-11-27T13:21:16;7.06;99.99
69335;SHT31;56477;52.742;15.242;2022-11-27T13:23:43;7.02;99.99
69335;SHT31;56477;52.742;15.242;2022-11-27T13:26:16;7.00;99.99
69335;SHT31;56477;52.742;15.242;2022-11-27T13:28:48;6.99;99.99
69335;SHT31;56477;52.742;15.242;2022-11-27T13:31:23;6.99;99.99
69335;SHT31;56477;52.742;15.242;2022-11-27T13:33:51;6.97;99.99
69335;SHT31;56477;52.742;15.242;2022-11-27T13:36:40;6.97;99.99
69335;SHT31;56477;52.742;15.242;2022-11-27T13:39:26;6.97;99.99
69335;SHT31;56477;52.742;15.242;2022-11-27T13:42:19;6.96;99.99
69335;SHT31;56477;52.742;15.242;2022-11-27T13:44:58;6.97;99.99
69335;SHT31;56477;52.742;15.242;2022-11-27T13:47:28;6.99;99.99
69335;SHT31;56477;52.742;15.242;2022-11-27T13:52:28;7.00;99.99
69335;SHT31;56477;52.742;15.242;2022-11-27T13:54:57;7.02;99.99
69335;SHT31;56477;52.742;15.242;2022-11-27T13:57:25;6.97;99.99
69335;SHT31;56477;52.742;15.242;2022-11-27T14:02:44;6.95;99.99
69335;SHT31;56477;52.742;15.242;2022-11-27T14:05:13;6.92;99.99
69335;SHT31;56477;52.742;15.242;2022-11-27T14:07:42;6.95;99.99
69335;SHT31;56477;52.742;15.242;2022-11-27T14:10:18;6.92;99.99
69335;SHT31;56477;52.742;15.242;2022-11-27T14:15:26;6.86;99.99
69335;SHT31;56477;52.742;15.242;2022-11-27T14:18:06;6.88;99.99
69335;SHT31;56477;52.742;15.242;2022-11-27T14:21:19;6.82;99.99
69335;SHT31;56477;52.742;15.242;2022-11-27T14:23:51;6.81;99.99
69335;SHT31;56477;52.742;15.242;2022-11-27T14:26:20;6.81;99.99
69335;SHT31;56477;52.742;15.242;2022-11-27T14:28:58;6.76;99.99
69335;SHT31;56477;52.742;15.242;2022-11-27T14:31:31;6.74;99.99
69335;SHT31;56477;52.742;15.242;2022-11-27T14:34:00;6.71;99.99
69335;SHT31;56477;52.742;15.242;2022-11-27T14:36:31;6.67;99.99
69335;SHT31;56477;52.742;15.242;2022-11-27T14:39:00;6.65;99.99
69335;SHT31;56477;52.742;15.242;2022-11-27T14:41:27;6.67;99.99
69335;SHT31;56477;52.742;15.242;2022-11-27T14:44:04;6.64;99.99
69335;SHT31;56477;52.742;15.242;2022-11-27T14:46:32;6.61;99.99
69335;SHT31;56477;52.742;15.242;2022-11-27T14:49:00;6.64;99.99
69335;SHT31;56477;52.742;15.242;2022-11-27T14:51:33;6.63;99.99
69335;SHT31;56477;52.742;15.242;2022-11-27T14:54:10;6.58;99.99
69335;SHT31;56477;52.742;15.242;2022-11-27T14:56:41;6.51;99.99
69335;SHT31;56477;52.742;15.242;2022-11-27T14:59:16;6.48;99.99
69335;SHT31;56477;52.742;15.242;2022-11-27T15:01:42;6.42;99.69
69335;SHT31;56477;52.742;15.242;2022-11-27T15:04:31;6.40;99.82
69335;SHT31;56477;52.742;15.242;2022-11-27T15:06:58;6.37;99.84
69335;SHT31;56477;52.742;15.242;2022-11-27T15:09:28;6.34;99.96
69335;SHT31;56477;52.742;15.242;2022-11-27T15:11:59;6.33;99.99
69335;SHT31;56477;52.742;15.242;2022-11-27T15:14:28;6.31;99.99
69335;SHT31;56477;52.742;15.242;2022-11-27T15:16:56;6.28;99.99
69335;SHT31;56477;52.742;15.242;2022-11-27T15:21:54;6.26;99.99
69335;SHT31;56477;52.742;15.242;2022-11-27T15:24:32;6.24;99.99
69335;SHT31;56477;52.742;15.242;2022-11-27T15:29:38;6.20;99.99
69335;SHT31;56477;52.742;15.242;2022-11-27T15:32:19;6.16;99.95
69335;SHT31;56477;52.742;15.242;2022-11-27T15:34:45;6.17;99.85
69335;SHT31;56477;52.742;15.242;2022-11-27T15:37:27;6.18;99.89
69335;SHT31;56477;52.742;15.242;2022-11-27T15:39:57;6.20;99.80
69335;SHT31;56477;52.742;15.242;2022-11-27T15:42:24;6.17;99.74
69335;SHT31;56477;52.742;15.242;2022-11-27T15:44:54;6.17;99.52
69335;SHT31;56477;52.742;15.242;2022-11-27T15:47:28;6.16;99.51
69335;SHT31;56477;52.742;15.242;2022-11-27T15:49:56;6.18;99.54
69335;SHT31;56477;52.742;15.242;2022-11-27T15:52:23;6.17;99.61
69335;SHT31;56477;52.742;15.242;2022-11-27T15:54:50;6.21;99.52
69335;SHT31;56477;52.742;15.242;2022-11-27T15:57:16;6.21;99.46
69335;SHT31;56477;52.742;15.242;2022-11-27T15:59:42;6.20;99.56
69335;SHT31;56477;52.742;15.242;2022-11-27T16:02:12;6.17;99.07
69335;SHT31;56477;52.742;15.242;2022-11-27T16:04:38;6.14;98.95
69335;SHT31;56477;52.742;15.242;2022-11-27T16:07:05;6.20;98.82
69335;SHT31;56477;52.742;15.242;2022-11-27T16:09:33;6.14;98.84
69335;SHT31;56477;52.742;15.242;2022-11-27T16:11:59;6.20;98.88
69335;SHT31;56477;52.742;15.242;2022-11-27T16:14:25;6.21;98.71
69335;SHT31;56477;52.742;15.242;2022-11-27T16:16:51;6.17;98.71
69335;SHT31;56477;52.742;15.242;2022-11-27T16:19:16;6.18;98.69
69335;SHT31;56477;52.742;15.242;2022-11-27T16:21:43;6.17;98.64
69335;SHT31;56477;52.742;15.242;2022-11-27T16:24:11;6.16;98.74
69335;SHT31;56477;52.742;15.242;2022-11-27T16:26:38;6.13;98.74
69335;SHT31;56477;52.742;15.242;2022-11-27T16:29:05;6.10;98.74
69335;SHT31;56477;52.742;15.242;2022-11-27T16:31:32;6.07;98.77
69335;SHT31;56477;52.742;15.242;2022-11-27T16:33:58;6.06;98.88
69335;SHT31;56477;52.742;15.242;2022-11-27T16:36:26;6.03;99.01
69335;SHT31;56477;52.742;15.242;2022-11-27T16:38:53;6.02;99.18
69335;SHT31;56477;52.742;15.242;2022-11-27T16:41:20;6.03;99.12
69335;SHT31;56477;52.742;15.242;2022-11-27T16:43:48;6.05;99.01
69335;SHT31;56477;52.742;15.242;2022-11-27T16:46:18;6.03;98.94
69335;SHT31;56477;52.742;15.242;2022-11-27T16:48:45;6.00;99.10
69335;SHT31;56477;52.742;15.242;2022-11-27T16:51:23;6.00;99.09
69335;SHT31;56477;52.742;15.242;2022-11-27T16:53:51;5.97;99.08
69335;SHT31;56477;52.742;15.242;2022-11-27T16:56:20;5.97;99.17
69335;SHT31;56477;52.742;15.242;2022-11-27T16:58:46;5.92;99.28
69335;SHT31;56477;52.742;15.242;2022-11-27T17:01:21;5.89;99.46
69335;SHT31;56477;52.742;15.242;2022-11-27T17:03:47;5.99;99.39
69335;SHT31;56477;52.742;15.242;2022-11-27T17:06:18;6.03;99.29
69335;SHT31;56477;52.742;15.242;2022-11-27T17:08:44;6.03;99.18
69335;SHT31;56477;52.742;15.242;2022-11-27T17:11:31;6.03;99.02
69335;SHT31;56477;52.742;15.242;2022-11-27T17:14:00;6.07;99.00
69335;SHT31;56477;52.742;15.242;2022-11-27T17:16:27;6.06;98.90
69335;SHT31;56477;52.742;15.242;2022-11-27T17:18:53;6.03;98.92
69335;SHT31;56477;52.742;15.242;2022-11-27T17:21:22;6.05;98.83
69335;SHT31;56477;52.742;15.242;2022-11-27T17:24:00;6.00;98.72
69335;SHT31;56477;52.742;15.242;2022-11-27T17:26:28;5.95;98.82
69335;SHT31;56477;52.742;15.242;2022-11-27T17:28:55;5.92;98.82
69335;SHT31;56477;52.742;15.242;2022-11-27T17:31:24;5.86;98.80
69335;SHT31;56477;52.742;15.242;2022-11-27T17:33:50;5.82;98.86
69335;SHT31;56477;52.742;15.242;2022-11-27T17:36:17;5.79;98.90
69335;SHT31;56477;52.742;15.242;2022-11-27T17:38:43;5.78;98.82
69335;SHT31;56477;52.742;15.242;2022-11-27T17:41:11;5.73;98.92
69335;SHT31;56477;52.742;15.242;2022-11-27T17:43:38;5.73;98.93
69335;SHT31;56477;52.742;15.242;2022-11-27T17:46:14;5.72;98.98